sensor_id;sensor_type;location;lat;lon;timestamp;pressure;altitude;pressure_sealevel;temperature;humidity
4767;BME280;2397;53.576;9.746;2023-04-27T00:01:53;101928.25;;;4.92;75.23
4767;BME280;2397;53.576;9.746;2023-04-27T00:04:20;101924.69;;;4.93;75.22
4767;BME280;2397;53.576;9.746;2023-04-27T00:06:48;101928.66;;;4.84;74.66
4767;BME280;2397;53.576;9.746;2023-04-27T00:09:14;101921.84;;;4.82;75.27
4767;BME280;2397;53.576;9.746;2023-04-27T00:11:41;101922.00;;;4.79;74.67
4767;BME280;2397;53.576;9.746;2023-04-27T00:14:08;101912.06;;;4.70;75.96
4767;BME280;2397;53.576;9.746;2023-04-27T00:16:34;101913.75;;;4.71;75.66
4767;BME280;2397;53.576;9.746;2023-04-27T00:19:01;101920.00;;;4.84;76.25
4767;BME280;2397;53.576;9.746;2023-04-27T00:21:27;101917.78;;;4.76;75.40
4767;BME280;2397;53.576;9.746;2023-04-27T00:23:54;101917.06;;;4.74;76.60
4767;BME280;2397;53.576;9.746;2023-04-27T00:26:20;101905.81;;;4.72;75.80
4767;BME280;2397;53.576;9.746;2023-04-27T00:28:49;101902.69;;;4.81;75.79
4767;BME280;2397;53.576;9.746;2023-04-27T00:31:15;101907.66;;;4.86;75.40
4767;BME280;2397;53.576;9.746;2023-04-27T00:33:42;101910.34;;;4.84;75.17
4767;BME280;2397;53.576;9.746;2023-04-27T00:36:08;101908.94;;;4.79;75.65
4767;BME280;2397;53.576;9.746;2023-04-27T00:38:35;101908.03;;;4.80;76.04
4767;BME280;2397;53.576;9.746;2023-04-27T00:41:05;101912.16;;;4.68;75.73
4767;BME280;2397;53.576;9.746;2023-04-27T00:43:39;101916.28;;;4.57;76.09
4767;BME280;2397;53.576;9.746;2023-04-27T00:46:07;101911.91;;;4.57;76.39
4767;BME280;2397;53.576;9.746;2023-04-27T00:48:34;101911.97;;;4.56;76.57
4767;BME280;2397;53.576;9.746;2023-04-27T00:51:00;101917.13;;;4.57;76.32
4767;BME280;2397;53.576;9.746;2023-04-27T00:53:27;101920.06;;;4.67;76.70
4767;BME280;2397;53.576;9.746;2023-04-27T00:55:54;101916.69;;;4.65;76.32
4767;BME280;2397;53.576;9.746;2023-04-27T00:58:23;101919.31;;;4.65;76.14
4767;BME280;2397;53.576;9.746;2023-04-27T01:00:50;101920.31;;;4.62;76.16
4767;BME280;2397;53.576;9.746;2023-04-27T01:03:17;101927.00;;;4.68;76.99
4767;BME280;2397;53.576;9.746;2023-04-27T01:05:44;101936.34;;;4.72;76.30
4767;BME280;2397;53.576;9.746;2023-04-27T01:08:10;101931.13;;;4.72;75.97
4767;BME280;2397;53.576;9.746;2023-04-27T01:10:37;101929.28;;;4.74;76.39
4767;BME280;2397;53.576;9.746;2023-04-27T01:13:04;101930.22;;;4.73;75.50
4767;BME280;2397;53.576;9.746;2023-04-27T01:15:31;101923.09;;;4.75;76.13
4767;BME280;2397;53.576;9.746;2023-04-27T01:17:58;101927.50;;;4.74;76.26
4767;BME280;2397;53.576;9.746;2023-04-27T01:20:27;101930.22;;;4.73;75.77
4767;BME280;2397;53.576;9.746;2023-04-27T01:22:58;101938.72;;;4.61;76.83
4767;BME280;2397;53.576;9.746;2023-04-27T01:25:25;101946.38;;;4.48;77.10
4767;BME280;2397;53.576;9.746;2023-04-27T01:27:52;101946.38;;;4.48;76.73
4767;BME280;2397;53.576;9.746;2023-04-27T01:30:19;101944.84;;;4.44;77.05
4767;BME280;2397;53.576;9.746;2023-04-27T01:32:48;101954.81;;;4.53;76.16
4767;BME280;2397;53.576;9.746;2023-04-27T01:35:17;101949.69;;;4.52;76.49
4767;BME280;2397;53.576;9.746;2023-04-27T01:37:44;101951.59;;;4.33;76.84
4767;BME280;2397;53.576;9.746;2023-04-27T01:40:11;101952.16;;;4.22;76.65
4767;BME280;2397;53.576;9.746;2023-04-27T01:42:38;101950.63;;;4.18;77.35
4767;BME280;2397;53.576;9.746;2023-04-27T01:45:07;101957.72;;;4.16;77.72
4767;BME280;2397;53.576;9.746;2023-04-27T01:47:34;101967.50;;;4.28;77.31
4767;BME280;2397;53.576;9.746;2023-04-27T01:50:01;101971.72;;;4.31;77.27
4767;BME280;2397;53.576;9.746;2023-04-27T01:52:27;101976.53;;;4.06;77.29
4767;BME280;2397;53.576;9.746;2023-04-27T01:54:54;101981.34;;;3.98;78.08
4767;BME280;2397;53.576;9.746;2023-04-27T01:57:21;101983.88;;;3.99;78.44
4767;BME280;2397;53.576;9.746;2023-04-27T01:59:47;101981.00;;;4.21;78.44
4767;BME280;2397;53.576;9.746;2023-04-27T02:02:14;101979.44;;;4.17;78.35
4767;BME280;2397;53.576;9.746;2023-04-27T02:04:41;101986.66;;;4.29;77.78
4767;BME280;2397;53.576;9.746;2023-04-27T02:07:08;101982.56;;;4.08;78.35
4767;BME280;2397;53.576;9.746;2023-04-27T02:09:35;101977.47;;;4.05;79.93
4767;BME280;2397;53.576;9.746;2023-04-27T02:12:02;101965.78;;;4.12;79.60
4767;BME280;2397;53.576;9.746;2023-04-27T02:14:28;101970.44;;;4.22;80.55
4767;BME280;2397;53.576;9.746;2023-04-27T02:16:55;101987.03;;;4.38;79.82
4767;BME280;2397;53.576;9.746;2023-04-27T02:19:22;101976.28;;;4.43;80.04
4767;BME280;2397;53.576;9.746;2023-04-27T02:21:48;101975.72;;;4.38;80.13
4767;BME280;2397;53.576;9.746;2023-04-27T02:24:15;101975.31;;;4.45;80.62
4767;BME280;2397;53.576;9.746;2023-04-27T02:26:43;101978.59;;;4.49;80.61
4767;BME280;2397;53.576;9.746;2023-04-27T02:29:10;101976.56;;;4.38;79.52
4767;BME280;2397;53.576;9.746;2023-04-27T02:31:37;101976.63;;;4.37;79.08
4767;BME280;2397;53.576;9.746;2023-04-27T02:34:04;101980.34;;;4.33;78.94
4767;BME280;2397;53.576;9.746;2023-04-27T02:36:30;101980.13;;;4.37;79.52
4767;BME280;2397;53.576;9.746;2023-04-27T02:38:57;101984.63;;;4.34;80.31
4767;BME280;2397;53.576;9.746;2023-04-27T02:41:23;101982.81;;;4.36;79.70
4767;BME280;2397;53.576;9.746;2023-04-27T02:43:53;101981.88;;;4.37;79.87
4767;BME280;2397;53.576;9.746;2023-04-27T02:46:19;101983.72;;;4.35;79.43
4767;BME280;2397;53.576;9.746;2023-04-27T02:48:46;101978.81;;;4.29;79.85
4767;BME280;2397;53.576;9.746;2023-04-27T02:51:13;101979.91;;;4.25;79.82
4767;BME280;2397;53.576;9.746;2023-04-27T02:53:39;101981.50;;;4.27;79.93
4767;BME280;2397;53.576;9.746;2023-04-27T02:56:06;101980.34;;;4.33;79.34
4767;BME280;2397;53.576;9.746;2023-04-27T02:58:32;101981.88;;;4.37;79.76
4767;BME280;2397;53.576;9.746;2023-04-27T03:00:59;101976.81;;;4.34;79.51
4767;BME280;2397;53.576;9.746;2023-04-27T03:03:26;101978.81;;;4.29;79.37
4767;BME280;2397;53.576;9.746;2023-04-27T03:05:53;101982.53;;;4.25;79.30
4767;BME280;2397;53.576;9.746;2023-04-27T03:08:19;101987.47;;;4.14;79.66
4767;BME280;2397;53.576;9.746;2023-04-27T03:10:46;101983.34;;;4.10;80.07
4767;BME280;2397;53.576;9.746;2023-04-27T03:13:15;101986.03;;;4.08;79.37
4767;BME280;2397;53.576;9.746;2023-04-27T03:15:42;101987.09;;;4.04;79.15
4767;BME280;2397;53.576;9.746;2023-04-27T03:18:08;101985.19;;;3.91;80.41
4767;BME280;2397;53.576;9.746;2023-04-27T03:20:35;101979.22;;;3.89;80.21
4767;BME280;2397;53.576;9.746;2023-04-27T03:23:02;101986.88;;;3.92;79.98
4767;BME280;2397;53.576;9.746;2023-04-27T03:25:28;101992.47;;;4.01;79.95
4767;BME280;2397;53.576;9.746;2023-04-27T03:27:55;101996.69;;;4.04;79.61
4767;BME280;2397;53.576;9.746;2023-04-27T03:30:22;101995.75;;;4.05;80.04
4767;BME280;2397;53.576;9.746;2023-04-27T03:32:48;101997.28;;;4.09;79.54
4767;BME280;2397;53.576;9.746;2023-04-27T03:35:15;101992.16;;;4.07;79.38
4767;BME280;2397;53.576;9.746;2023-04-27T03:37:44;101979.44;;;4.17;79.42
4767;BME280;2397;53.576;9.746;2023-04-27T03:40:12;101987.13;;;4.20;79.40
4767;BME280;2397;53.576;9.746;2023-04-27T03:42:39;101983.16;;;4.13;79.26
4767;BME280;2397;53.576;9.746;2023-04-27T03:45:07;101989.81;;;4.18;79.10
4767;BME280;2397;53.576;9.746;2023-04-27T03:47:33;101986.03;;;4.08;79.53
4767;BME280;2397;53.576;9.746;2023-04-27T03:50:00;101992.22;;;4.06;80.25
4767;BME280;2397;53.576;9.746;2023-04-27T03:52:27;101995.63;;;4.08;79.85
4767;BME280;2397;53.576;9.746;2023-04-27T03:54:53;102000.53;;;4.14;80.37
4767;BME280;2397;53.576;9.746;2023-04-27T03:57:20;101992.50;;;4.17;80.24
4767;BME280;2397;53.576;9.746;2023-04-27T03:59:46;101992.50;;;4.17;80.41
4767;BME280;2397;53.576;9.746;2023-04-27T04:02:13;101998.00;;;4.12;80.45
4767;BME280;2397;53.576;9.746;2023-04-27T04:04:40;101995.31;;;4.14;79.91
4767;BME280;2397;53.576;9.746;2023-04-27T04:07:07;101992.00;;;4.10;80.28
4767;BME280;2397;53.576;9.746;2023-04-27T04:09:34;101992.56;;;4.00;79.91
4767;BME280;2397;53.576;9.746;2023-04-27T04:12:01;101998.38;;;4.05;80.21
4767;BME280;2397;53.576;9.746;2023-04-27T04:14:28;102001.50;;;4.11;80.66
4767;BME280;2397;53.576;9.746;2023-04-27T04:16:55;102001.63;;;4.10;80.30
4767;BME280;2397;53.576;9.746;2023-04-27T04:19:22;102004.69;;;4.01;80.77
4767;BME280;2397;53.576;9.746;2023-04-27T04:21:48;102008.75;;;4.06;80.41
4767;BME280;2397;53.576;9.746;2023-04-27T04:24:17;102011.78;;;3.99;80.36
4767;BME280;2397;53.576;9.746;2023-04-27T04:26:44;102016.81;;;4.02;79.93
4767;BME280;2397;53.576;9.746;2023-04-27T04:29:10;102013.53;;;3.98;80.58
4767;BME280;2397;53.576;9.746;2023-04-27T04:31:37;102020.22;;;4.04;80.60
4767;BME280;2397;53.576;9.746;2023-04-27T04:34:03;102017.97;;;4.13;80.39
4767;BME280;2397;53.576;9.746;2023-04-27T04:36:30;102019.41;;;4.19;80.16
4767;BME280;2397;53.576;9.746;2023-04-27T04:38:57;102020.06;;;4.07;80.45
4767;BME280;2397;53.576;9.746;2023-04-27T04:41:24;102021.13;;;4.03;79.75
4767;BME280;2397;53.576;9.746;2023-04-27T04:43:51;102024.72;;;4.00;80.58
4767;BME280;2397;53.576;9.746;2023-04-27T04:46:18;102023.56;;;4.06;80.10
4767;BME280;2397;53.576;9.746;2023-04-27T04:48:45;102022.59;;;4.08;80.83
4767;BME280;2397;53.576;9.746;2023-04-27T04:51:12;102030.03;;;4.16;80.02
4767;BME280;2397;53.576;9.746;2023-04-27T04:53:38;102028.34;;;4.15;80.15
4767;BME280;2397;53.576;9.746;2023-04-27T04:56:09;102033.41;;;4.18;80.14
4767;BME280;2397;53.576;9.746;2023-04-27T04:58:36;102035.25;;;4.16;79.20
4767;BME280;2397;53.576;9.746;2023-04-27T05:01:04;102035.56;;;4.10;80.34
4767;BME280;2397;53.576;9.746;2023-04-27T05:03:31;102048.53;;;4.11;80.16
4767;BME280;2397;53.576;9.746;2023-04-27T05:05:58;102044.38;;;4.07;79.61
4767;BME280;2397;53.576;9.746;2023-04-27T05:08:24;102047.06;;;4.06;80.01
4767;BME280;2397;53.576;9.746;2023-04-27T05:10:51;102043.31;;;4.11;80.05
4767;BME280;2397;53.576;9.746;2023-04-27T05:13:19;102039.31;;;4.21;79.76
4767;BME280;2397;53.576;9.746;2023-04-27T05:15:45;102041.91;;;4.38;78.97
4767;BME280;2397;53.576;9.746;2023-04-27T05:18:12;102039.66;;;4.48;79.20
4767;BME280;2397;53.576;9.746;2023-04-27T05:20:39;102040.41;;;4.50;78.84
4767;BME280;2397;53.576;9.746;2023-04-27T05:23:06;102042.09;;;4.51;79.29
4767;BME280;2397;53.576;9.746;2023-04-27T05:25:33;102041.13;;;4.69;78.76
4767;BME280;2397;53.576;9.746;2023-04-27T05:27:59;102045.19;;;4.74;77.83
4767;BME280;2397;53.576;9.746;2023-04-27T05:30:26;102044.31;;;4.58;78.01
4767;BME280;2397;53.576;9.746;2023-04-27T05:32:52;102037.31;;;4.59;78.19
4767;BME280;2397;53.576;9.746;2023-04-27T05:35:19;102046.53;;;4.66;76.93
4767;BME280;2397;53.576;9.746;2023-04-27T05:37:46;102049.22;;;4.64;77.75
4767;BME280;2397;53.576;9.746;2023-04-27T05:40:13;102036.66;;;4.71;78.57
4767;BME280;2397;53.576;9.746;2023-04-27T05:42:40;102048.91;;;4.86;78.22
4767;BME280;2397;53.576;9.746;2023-04-27T05:45:07;102037.00;;;4.96;76.61
4767;BME280;2397;53.576;9.746;2023-04-27T05:47:33;102036.69;;;5.02;76.74
4767;BME280;2397;53.576;9.746;2023-04-27T05:50:00;102048.22;;;4.98;76.56
4767;BME280;2397;53.576;9.746;2023-04-27T05:52:26;102056.53;;;5.06;77.64
4767;BME280;2397;53.576;9.746;2023-04-27T05:54:57;102062.19;;;5.14;76.57
4767;BME280;2397;53.576;9.746;2023-04-27T05:57:24;102064.63;;;5.17;76.97
4767;BME280;2397;53.576;9.746;2023-04-27T05:59:51;102057.88;;;5.13;75.91
4767;BME280;2397;53.576;9.746;2023-04-27T06:02:18;102058.03;;;5.10;75.57
4767;BME280;2397;53.576;9.746;2023-04-27T06:04:45;102054.66;;;5.08;76.18
4767;BME280;2397;53.576;9.746;2023-04-27T06:07:13;102052.28;;;5.03;76.26
4767;BME280;2397;53.576;9.746;2023-04-27T06:09:41;102054.00;;;5.04;77.44
4767;BME280;2397;53.576;9.746;2023-04-27T06:12:08;102061.56;;;5.09;77.56
4767;BME280;2397;53.576;9.746;2023-04-27T06:14:35;102065.53;;;5.16;77.54
4767;BME280;2397;53.576;9.746;2023-04-27T06:17:03;102056.34;;;5.24;76.51
4767;BME280;2397;53.576;9.746;2023-04-27T06:19:29;102058.19;;;5.38;76.59
4767;BME280;2397;53.576;9.746;2023-04-27T06:21:56;102060.63;;;5.56;76.83
4767;BME280;2397;53.576;9.746;2023-04-27T06:24:23;102061.03;;;5.49;76.21
4767;BME280;2397;53.576;9.746;2023-04-27T06:26:49;102065.84;;;5.56;75.39
4767;BME280;2397;53.576;9.746;2023-04-27T06:29:16;102063.94;;;5.74;74.94
4767;BME280;2397;53.576;9.746;2023-04-27T06:31:43;102063.56;;;5.66;75.28
4767;BME280;2397;53.576;9.746;2023-04-27T06:34:09;102066.09;;;5.83;74.72
4767;BME280;2397;53.576;9.746;2023-04-27T06:36:36;102061.03;;;5.94;74.95
4767;BME280;2397;53.576;9.746;2023-04-27T06:39:02;102066.63;;;6.03;73.67
4767;BME280;2397;53.576;9.746;2023-04-27T06:41:29;102062.41;;;6.15;73.35
4767;BME280;2397;53.576;9.746;2023-04-27T06:43:55;102053.44;;;6.33;71.44
4767;BME280;2397;53.576;9.746;2023-04-27T06:46:24;102050.84;;;6.33;70.91
4767;BME280;2397;53.576;9.746;2023-04-27T06:48:51;102038.78;;;6.44;70.71
4767;BME280;2397;53.576;9.746;2023-04-27T06:51:18;102038.66;;;6.60;69.48
4767;BME280;2397;53.576;9.746;2023-04-27T06:53:44;102046.53;;;6.46;69.42
4767;BME280;2397;53.576;9.746;2023-04-27T06:56:11;102046.72;;;6.43;69.39
4767;BME280;2397;53.576;9.746;2023-04-27T06:58:37;102054.59;;;6.43;70.37
4767;BME280;2397;53.576;9.746;2023-04-27T07:01:04;102062.56;;;6.55;69.44
4767;BME280;2397;53.576;9.746;2023-04-27T07:03:33;102072.88;;;6.58;69.88
4767;BME280;2397;53.576;9.746;2023-04-27T07:06:00;102080.09;;;6.69;69.93
4767;BME280;2397;53.576;9.746;2023-04-27T07:08:26;102082.31;;;6.89;69.87
4767;BME280;2397;53.576;9.746;2023-04-27T07:10:53;102080.53;;;7.03;70.08
4767;BME280;2397;53.576;9.746;2023-04-27T07:13:21;102084.56;;;7.09;67.74
4767;BME280;2397;53.576;9.746;2023-04-27T07:15:53;102086.41;;;7.07;68.20
4767;BME280;2397;53.576;9.746;2023-04-27T07:18:20;102083.25;;;7.02;66.87
4767;BME280;2397;53.576;9.746;2023-04-27T07:20:46;102097.13;;;6.76;69.13
4767;BME280;2397;53.576;9.746;2023-04-27T07:23:13;102091.31;;;6.85;68.53
4767;BME280;2397;53.576;9.746;2023-04-27T07:25:39;102099.63;;;7.05;68.64
4767;BME280;2397;53.576;9.746;2023-04-27T07:28:05;102101.38;;;7.19;68.84
4767;BME280;2397;53.576;9.746;2023-04-27T07:30:32;102098.59;;;7.08;67.34
4767;BME280;2397;53.576;9.746;2023-04-27T07:33:02;102098.22;;;6.86;67.79
4767;BME280;2397;53.576;9.746;2023-04-27T07:35:28;102100.22;;;6.82;68.53
4767;BME280;2397;53.576;9.746;2023-04-27T07:37:55;102105.38;;;6.70;68.27
4767;BME280;2397;53.576;9.746;2023-04-27T07:40:22;102098.53;;;6.95;68.88
4767;BME280;2397;53.576;9.746;2023-04-27T07:42:49;102103.81;;;7.36;66.74
4767;BME280;2397;53.576;9.746;2023-04-27T07:45:16;102097.53;;;7.65;65.58
4767;BME280;2397;53.576;9.746;2023-04-27T07:47:43;102095.69;;;7.53;64.50
4767;BME280;2397;53.576;9.746;2023-04-27T07:50:10;102099.91;;;7.56;64.92
4767;BME280;2397;53.576;9.746;2023-04-27T07:52:36;102097.19;;;7.57;64.15
4767;BME280;2397;53.576;9.746;2023-04-27T07:55:03;102104.75;;;7.62;64.24
4767;BME280;2397;53.576;9.746;2023-04-27T07:57:30;102104.03;;;7.86;63.71
4767;BME280;2397;53.576;9.746;2023-04-27T07:59:56;102112.72;;;7.87;63.62
4767;BME280;2397;53.576;9.746;2023-04-27T08:02:25;102105.09;;;7.96;63.16
4767;BME280;2397;53.576;9.746;2023-04-27T08:04:52;102100.84;;;7.81;64.05
4767;BME280;2397;53.576;9.746;2023-04-27T08:07:19;102096.41;;;8.21;63.85
4767;BME280;2397;53.576;9.746;2023-04-27T08:09:46;102097.41;;;8.45;62.10
4767;BME280;2397;53.576;9.746;2023-04-27T08:12:16;102098.13;;;8.22;60.41
4767;BME280;2397;53.576;9.746;2023-04-27T08:14:42;102084.16;;;8.34;60.38
4767;BME280;2397;53.576;9.746;2023-04-27T08:17:08;102091.84;;;8.49;60.84
4767;BME280;2397;53.576;9.746;2023-04-27T08:19:35;102090.59;;;8.67;62.25
4767;BME280;2397;53.576;9.746;2023-04-27T08:22:01;102085.53;;;9.13;60.19
4767;BME280;2397;53.576;9.746;2023-04-27T08:24:28;102070.75;;;9.35;57.08
4767;BME280;2397;53.576;9.746;2023-04-27T08:26:55;102072.94;;;9.41;58.94
4767;BME280;2397;53.576;9.746;2023-04-27T08:29:21;102072.53;;;9.58;57.19
4767;BME280;2397;53.576;9.746;2023-04-27T08:31:57;102068.38;;;9.43;54.99
4767;BME280;2397;53.576;9.746;2023-04-27T08:34:24;102062.03;;;8.86;54.37
4767;BME280;2397;53.576;9.746;2023-04-27T08:36:51;102075.53;;;8.44;53.75
4767;BME280;2397;53.576;9.746;2023-04-27T08:39:17;102074.25;;;8.37;55.05
4767;BME280;2397;53.576;9.746;2023-04-27T08:41:44;102068.66;;;8.29;55.62
4767;BME280;2397;53.576;9.746;2023-04-27T08:44:11;102069.63;;;8.41;56.00
4767;BME280;2397;53.576;9.746;2023-04-27T08:46:38;102089.00;;;8.27;57.12
4767;BME280;2397;53.576;9.746;2023-04-27T08:49:04;102075.59;;;8.18;57.96
4767;BME280;2397;53.576;9.746;2023-04-27T08:51:33;102080.56;;;8.22;58.31
4767;BME280;2397;53.576;9.746;2023-04-27T08:54:00;102080.78;;;8.32;59.63
4767;BME280;2397;53.576;9.746;2023-04-27T08:56:28;102068.78;;;8.40;57.90
4767;BME280;2397;53.576;9.746;2023-04-27T08:58:56;102071.63;;;8.37;57.96
4767;BME280;2397;53.576;9.746;2023-04-27T09:01:23;102068.47;;;8.32;57.47
4767;BME280;2397;53.576;9.746;2023-04-27T09:03:58;102069.75;;;8.39;57.30
4767;BME280;2397;53.576;9.746;2023-04-27T09:06:33;102065.09;;;8.80;55.89
4767;BME280;2397;53.576;9.746;2023-04-27T09:09:01;102064.13;;;9.53;54.70
4767;BME280;2397;53.576;9.746;2023-04-27T09:11:31;102053.00;;;9.84;53.13
4767;BME280;2397;53.576;9.746;2023-04-27T09:13:59;102050.16;;;10.33;50.93
4767;BME280;2397;53.576;9.746;2023-04-27T09:16:27;102044.91;;;10.77;50.14
4767;BME280;2397;53.576;9.746;2023-04-27T09:18:56;102040.72;;;10.64;49.99
4767;BME280;2397;53.576;9.746;2023-04-27T09:21:24;102053.16;;;10.28;51.93
4767;BME280;2397;53.576;9.746;2023-04-27T09:23:51;102057.63;;;10.04;50.50
4767;BME280;2397;53.576;9.746;2023-04-27T09:26:22;102056.28;;;9.99;49.95
4767;BME280;2397;53.576;9.746;2023-04-27T09:28:51;102058.44;;;9.59;50.58
4767;BME280;2397;53.576;9.746;2023-04-27T09:31:18;102052.78;;;9.40;51.19
4767;BME280;2397;53.576;9.746;2023-04-27T09:33:53;102056.84;;;9.91;51.30
4767;BME280;2397;53.576;9.746;2023-04-27T09:36:21;102046.69;;;9.87;50.07
4767;BME280;2397;53.576;9.746;2023-04-27T09:38:49;102057.50;;;9.71;52.11
4767;BME280;2397;53.576;9.746;2023-04-27T09:41:17;102059.34;;;10.05;52.42
4767;BME280;2397;53.576;9.746;2023-04-27T09:43:44;102050.06;;;10.34;52.32
4767;BME280;2397;53.576;9.746;2023-04-27T09:46:14;102047.53;;;10.33;50.23
4767;BME280;2397;53.576;9.746;2023-04-27T09:48:41;102039.69;;;10.20;51.55
4767;BME280;2397;53.576;9.746;2023-04-27T09:51:08;102047.66;;;10.43;52.30
4767;BME280;2397;53.576;9.746;2023-04-27T09:53:42;102051.22;;;10.19;52.36
4767;BME280;2397;53.576;9.746;2023-04-27T09:56:50;102043.75;;;10.13;51.03
4767;BME280;2397;53.576;9.746;2023-04-27T10:02:58;102043.88;;;10.12;50.87
4767;BME280;2397;53.576;9.746;2023-04-27T10:05:34;102043.22;;;9.97;51.05
4767;BME280;2397;53.576;9.746;2023-04-27T10:08:04;102054.09;;;10.16;51.19
4767;BME280;2397;53.576;9.746;2023-04-27T10:10:41;102049.72;;;10.04;50.58
4767;BME280;2397;53.576;9.746;2023-04-27T10:13:19;102045.25;;;10.62;49.26
4767;BME280;2397;53.576;9.746;2023-04-27T10:15:46;102036.97;;;10.88;49.36
4767;BME280;2397;53.576;9.746;2023-04-27T10:18:24;102029.59;;;11.25;46.95
4767;BME280;2397;53.576;9.746;2023-04-27T10:20:51;102035.78;;;11.46;46.31
4767;BME280;2397;53.576;9.746;2023-04-27T10:23:25;102035.81;;;11.35;46.50
4767;BME280;2397;53.576;9.746;2023-04-27T10:25:53;102033.03;;;10.83;47.73
4767;BME280;2397;53.576;9.746;2023-04-27T10:28:20;102040.94;;;10.50;48.38
4767;BME280;2397;53.576;9.746;2023-04-27T10:30:47;102045.91;;;10.08;48.55
4767;BME280;2397;53.576;9.746;2023-04-27T10:33:16;102046.41;;;9.90;49.41
4767;BME280;2397;53.576;9.746;2023-04-27T10:35:53;102053.31;;;10.03;51.19
4767;BME280;2397;53.576;9.746;2023-04-27T10:38:26;102085.25;;;9.88;53.76
4767;BME280;2397;53.576;9.746;2023-04-27T10:40:58;102084.41;;;9.87;55.21
4767;BME280;2397;53.576;9.746;2023-04-27T10:43:30;102091.78;;;9.71;55.85
4767;BME280;2397;53.576;9.746;2023-04-27T10:46:11;102085.50;;;9.61;55.42
4767;BME280;2397;53.576;9.746;2023-04-27T10:48:39;102096.09;;;9.72;55.81
4767;BME280;2397;53.576;9.746;2023-04-27T10:51:06;102082.47;;;9.78;55.13
4767;BME280;2397;53.576;9.746;2023-04-27T10:53:36;102085.63;;;9.94;55.43
4767;BME280;2397;53.576;9.746;2023-04-27T10:56:04;102092.66;;;10.06;55.26
4767;BME280;2397;53.576;9.746;2023-04-27T10:58:33;102085.72;;;9.82;54.63
4767;BME280;2397;53.576;9.746;2023-04-27T11:01:26;102081.47;;;9.68;53.77
4767;BME280;2397;53.576;9.746;2023-04-27T11:03:58;102079.56;;;10.05;53.41
4767;BME280;2397;53.576;9.746;2023-04-27T11:06:25;102070.09;;;10.37;51.31
4767;BME280;2397;53.576;9.746;2023-04-27T11:08:53;102068.75;;;10.31;52.13
4767;BME280;2397;53.576;9.746;2023-04-27T11:11:20;102056.53;;;10.30;50.47
4767;BME280;2397;53.576;9.746;2023-04-27T11:13:48;102062.91;;;10.50;52.33
4767;BME280;2397;53.576;9.746;2023-04-27T11:16:15;102064.13;;;10.68;50.98
4767;BME280;2397;53.576;9.746;2023-04-27T11:18:41;102056.56;;;10.97;50.70
4767;BME280;2397;53.576;9.746;2023-04-27T11:23:36;102066.72;;;11.12;50.82
4767;BME280;2397;53.576;9.746;2023-04-27T11:28:41;102058.19;;;11.20;50.21
4767;BME280;2397;53.576;9.746;2023-04-27T11:31:07;102055.22;;;11.02;48.15
4767;BME280;2397;53.576;9.746;2023-04-27T11:33:34;102061.34;;;10.59;50.76
4767;BME280;2397;53.576;9.746;2023-04-27T11:36:01;102055.34;;;10.79;50.51
4767;BME280;2397;53.576;9.746;2023-04-27T11:38:32;102052.28;;;11.38;50.62
4767;BME280;2397;53.576;9.746;2023-04-27T11:41:01;102047.00;;;12.22;47.45
4767;BME280;2397;53.576;9.746;2023-04-27T11:43:29;102051.22;;;12.54;48.89
4767;BME280;2397;53.576;9.746;2023-04-27T11:45:55;102039.94;;;12.92;46.73
4767;BME280;2397;53.576;9.746;2023-04-27T11:48:24;102034.06;;;12.28;46.59
4767;BME280;2397;53.576;9.746;2023-04-27T11:50:52;102040.66;;;12.13;46.64
4767;BME280;2397;53.576;9.746;2023-04-27T11:53:32;102036.66;;;11.98;47.08
4767;BME280;2397;53.576;9.746;2023-04-27T11:56:03;102038.13;;;11.60;47.25
4767;BME280;2397;53.576;9.746;2023-04-27T11:58:35;102048.34;;;11.33;47.77
4767;BME280;2397;53.576;9.746;2023-04-27T12:01:03;102054.13;;;11.05;48.41
4767;BME280;2397;53.576;9.746;2023-04-27T12:03:29;102042.75;;;10.60;49.65
4767;BME280;2397;53.576;9.746;2023-04-27T12:05:57;102051.84;;;10.45;50.16
4767;BME280;2397;53.576;9.746;2023-04-27T12:08:41;102061.19;;;10.27;51.08
4767;BME280;2397;53.576;9.746;2023-04-27T12:11:08;102057.97;;;10.34;51.25
4767;BME280;2397;53.576;9.746;2023-04-27T12:13:34;102065.91;;;10.57;52.63
4767;BME280;2397;53.576;9.746;2023-04-27T12:16:01;102062.53;;;10.66;52.31
4767;BME280;2397;53.576;9.746;2023-04-27T12:18:27;102070.13;;;10.70;51.53
4767;BME280;2397;53.576;9.746;2023-04-27T12:20:54;102062.94;;;10.83;51.34
4767;BME280;2397;53.576;9.746;2023-04-27T12:23:20;102052.47;;;10.60;50.73
4767;BME280;2397;53.576;9.746;2023-04-27T12:25:47;102053.41;;;10.70;49.82
4767;BME280;2397;53.576;9.746;2023-04-27T12:28:14;102059.44;;;10.83;50.68
4767;BME280;2397;53.576;9.746;2023-04-27T12:30:44;102050.78;;;10.81;50.79
4767;BME280;2397;53.576;9.746;2023-04-27T12:33:11;102066.38;;;10.62;50.17
4767;BME280;2397;53.576;9.746;2023-04-27T12:35:37;102057.13;;;10.45;50.37
4767;BME280;2397;53.576;9.746;2023-04-27T12:38:04;102057.94;;;10.23;50.82
4767;BME280;2397;53.576;9.746;2023-04-27T12:40:31;102071.59;;;10.17;51.54
4767;BME280;2397;53.576;9.746;2023-04-27T12:42:58;102071.38;;;10.20;52.43
4767;BME280;2397;53.576;9.746;2023-04-27T12:45:26;102080.81;;;10.12;53.94
4767;BME280;2397;53.576;9.746;2023-04-27T12:47:53;102084.94;;;9.92;54.30
4767;BME280;2397;53.576;9.746;2023-04-27T12:50:30;102083.13;;;9.93;52.72
4767;BME280;2397;53.576;9.746;2023-04-27T12:52:58;102078.53;;;9.84;53.09
4767;BME280;2397;53.576;9.746;2023-04-27T12:55:25;102088.47;;;9.80;54.14
4767;BME280;2397;53.576;9.746;2023-04-27T12:58:00;102090.53;;;9.88;55.95
4767;BME280;2397;53.576;9.746;2023-04-27T13:00:27;102090.22;;;9.92;55.95
4767;BME280;2397;53.576;9.746;2023-04-27T13:02:55;102096.41;;;9.91;56.72
4767;BME280;2397;53.576;9.746;2023-04-27T13:05:22;102088.34;;;10.05;56.19
4767;BME280;2397;53.576;9.746;2023-04-27T13:07:49;102090.56;;;10.22;55.76
4767;BME280;2397;53.576;9.746;2023-04-27T13:10:15;102089.91;;;10.08;54.57
4767;BME280;2397;53.576;9.746;2023-04-27T13:12:42;102092.94;;;10.14;54.71
4767;BME280;2397;53.576;9.746;2023-04-27T13:15:09;102087.94;;;10.22;52.96
4767;BME280;2397;53.576;9.746;2023-04-27T13:17:36;102093.50;;;10.07;52.73
4767;BME280;2397;53.576;9.746;2023-04-27T13:20:03;102086.44;;;10.07;52.75
4767;BME280;2397;53.576;9.746;2023-04-27T13:22:29;102083.38;;;10.24;51.04
4767;BME280;2397;53.576;9.746;2023-04-27T13:24:56;102079.19;;;10.33;50.06
4767;BME280;2397;53.576;9.746;2023-04-27T13:27:23;102078.97;;;10.47;49.78
4767;BME280;2397;53.576;9.746;2023-04-27T13:29:53;102069.88;;;10.51;49.26
4767;BME280;2397;53.576;9.746;2023-04-27T13:32:20;102067.81;;;10.77;48.56